Flight Track Log - Related Links

Times and Time Zones

All times are in EDT time to prevent confusion due to time zone crossing. See the N521LL flight status page for this flight to view local times or setup timezone preferences in your user account.

Time Position Orientation Groundspeed Altitude Reporting Facility
EDT Latitude Longitude Course Direction KTS MPH feet Rate Location/Type
Sun 05:33:46 PM 29.8864 -104.5125 35° Northeast 460 529 41,000  Level Albuquerque Center
Sun 05:34:49 PM 29.9678 -104.4036 49° Northeast 458 527 41,000  Level Albuquerque Center
Sun 05:35:51 PM 30.0581 -104.3014 44° Northeast 463 533 41,000  Level Albuquerque Center
Sun 05:36:53 PM 30.1681 -104.1836 43° Northeast 456 525 41,000  Level Albuquerque Center
Sun 05:37:55 PM 30.2597 -104.0814 44° Northeast 459 528 41,000  Level Albuquerque Center
Sun 05:38:57 PM 30.3514 -103.9819 43° Northeast 457 526 41,000  Level Albuquerque Center
Sun 05:39:00 PM 30.2594 -103.7700 35° Northeast  Level Estimated
Sun 05:39:59 PM 30.4431 -103.8808 44° Northeast 458 527 41,000  Level Albuquerque Center
Sun 05:41:01 PM 30.5392 -103.7747 44° Northeast 458 527 41,000  Level Albuquerque Center
Sun 05:42:03 PM 30.6319 -103.6736 43° Northeast 458 527 41,000  Level Albuquerque Center
Sun 05:43:05 PM 30.7419 -103.5492 44° Northeast 461 531 41,000 -532 Level Albuquerque Center
Sun 05:44:07 PM 30.8339 -103.4486 43° Northeast 457 526 39,900 -1,790 Descending Albuquerque Center
Sun 05:45:09 PM 30.9253 -103.3472 44° Northeast 455 524 37,300 -2,710 Descending Albuquerque Center
Sun 05:46:11 PM 31.0181 -103.2506 42° Northeast 450 518 34,300 -3,194 Descending Albuquerque Center
Sun 05:47:13 PM 31.1097 -103.1461 44° Northeast 458 527 30,700 -3,290 Descending Albuquerque Center
Sun 05:48:15 PM 31.2019 -103.0469 43° Northeast 451 519 27,500 -2,661 Descending Albuquerque Center
Sun 05:49:17 PM 31.2839 -102.9511 45° Northeast 426 490 25,200 -2,516 Descending Albuquerque Center
Sun 05:50:19 PM 31.3789 -102.8431 44° Northeast 401 461 22,300 -2,371 Descending Albuquerque Center
Sun 05:51:21 PM 31.4572 -102.7544 44° Northeast 393 452 20,300 -2,129 Descending Albuquerque Center
Sun 05:52:23 PM 31.5203 -102.6572 53° Northeast 377 434 17,900 -2,516 Descending Albuquerque Center
Sun 05:53:25 PM 31.5700 -102.5508 61° Northeast 372 428 15,100 -2,565 Descending Albuquerque Center
Sun 05:54:27 PM 31.6233 -102.4553 57° Northeast 354 407 12,600 -2,416 Descending Albuquerque Center
Sun 05:54:42 PM 31.6325 -102.4442 46° Northeast 351 404 12,000 -2,368 Descending Fort Worth Center
Sun 05:55:43 PM 31.6903 -102.3519 54° Northeast 331 381 9,600 -2,083 Descending Fort Worth Center
Sun 05:56:43 PM 31.7392 -102.2764 53° Northeast 310 357 7,800 -1,800 Descending Fort Worth Center
Sun 05:57:43 PM 31.7878 -102.2058 51° Northeast 296 341 6,000 -1,160 Descending Fort Worth Center
Sun 05:58:42 PM 31.8358 -102.1497 45° Northeast 267 307 5,500 -800 Descending Fort Worth Center
Sun 05:59:43 PM 31.8869 -102.1278 20° North 230 265 4,400 -1,000 Descending Fort Worth Center
Sun 06:00:42 PM 31.9256 -102.1519 332° Northwest 158 182 3,500 -756 Descending Fort Worth Center
Sun 06:01:42 PM 31.9514 -102.1875 311° West 131 151 2,900 -600 Descending Fort Worth Center

Login

Don't have an account? Register now (free) for customized features, flight alerts, and more!